ADDS METAR Data INFO
IDs: Format: Raw Decoded Include TAF

Data at: 0803 UTC 23 Jul 2018

KSQI 230756Z 34003KT 8SM CLR 17/16 A2997 RMK AO2 SLP163 T01670161
KSQI 230656Z 00000KT 9SM CLR 17/16 A2998 RMK AO2 SLP165 T01670161
KSQI 230556Z 00000KT 9SM CLR 18/17 A2998 RMK AO2 SLP165 60000 T01830172 10233 20178 402440178 51004
KSQI 230456Z 35004KT 9SM CLR 18/18 A2997 RMK AO2 SLP165 T01830178
KSQI 230356Z 35005KT 10SM FEW035 19/18 A2997 RMK AO2 SLP163 T01940183
KSQI 230256Z 02004KT 10SM CLR 21/19 A2997 RMK AO2 SLP161 60000 T02060189 51009
KSQI 230156Z 35005KT 10SM SCT039 22/19 A2996 RMK AO2 SLP158 T02170194
KSQI 230056Z 33005KT 10SM SCT039 SCT050 BKN080 23/20 A2995 RMK AO2 RAE05 SLP154 P0000 T02280200
KSQI 222356Z 33007KT 10SM -RA SCT028 BKN035 OVC085 23/20 A2994 RMK AO2 RAB54 SLP151 P0000 60000 T02330200 10244 20222 53002
KSQI 222256Z 34007KT 10SM FEW018 BKN048 24/20 A2993 RMK AO2 SLP148 T02440200
KSQI 222156Z 36006KT 10SM FEW017 SCT036 OVC045 23/20 A2994 RMK AO2 SLP150 T02330200
KSQI 222141Z 35008KT 10SM FEW017 BKN035 OVC047 24/20 A2994 RMK AO2
KSQI 222056Z 34009KT 10SM BKN020 OVC026 23/19 A2993 RMK AO2 RAB26E38 SLP149 P0000 60000 T02280194 51004
KSQI 221956Z AUTO 36009KT 10SM BKN021 OVC032 23/19 A2993 RMK AO2 SLP148 T02330194
KSQI 221856Z AUTO 02009KT 10SM OVC019 22/19 A2993 RMK AO2 SLP148 T02220189
KSQI 221756Z AUTO 02009KT 10SM OVC019 23/19 A2992 RMK AO2 SLP145 T02280189 10228 20200 50000
KSQI 221656Z AUTO 02009G17KT 10SM OVC019 22/18 A2993 RMK AO2 SLP150 T02170183
KSQI 221556Z AUTO 01010G17KT 10SM OVC019 22/18 A2993 RMK AO2 SLP147 T02170183
KSQI 221456Z AUTO 02007KT 10SM OVC019 21/18 A2992 RMK AO2 SLP145 T02110183 50003
KSQI 221356Z AUTO 36007G15KT 10SM BKN015 OVC020 21/18 A2992 RMK AO2 SLP145 T02110183
KSQI 221316Z AUTO 36011G16KT 10SM BKN013 OVC030 21/18 A2992 RMK AO2
KSQI 221256Z AUTO 36009KT 10SM FEW013 OVC032 21/18 A2992 RMK AO2 SLP145 T02060183
KSQI 221225Z AUTO 01010KT 10SM FEW011 OVC036 21/18 A2992 RMK AO2
KSQI 221156Z AUTO 35008KT 10SM BKN013 OVC036 20/18 A2991 RMK AO2 SLP141 6//// 7//// T02000183 10200 20194 53006
KSQI 221056Z AUTO 36006KT 10SM BKN013 BKN024 OVC055 20/18 A2990 RMK AO2 SLP137 T02000183
KSQI 221051Z AUTO 34005KT 10SM BKN013 BKN026 BKN050 20/18 A2991 RMK AO2
KSQI 220956Z AUTO 35009KT 10SM OVC039 20/18 A2989 RMK AO2 SLP134 T02000183
KSQI 220856Z AUTO 34008KT 10SM SCT018 BKN031 OVC041 20/18 A2989 RMK AO2 SLP132 6//// T02000183 50001
KSQI 220853Z AUTO 34009KT 10SM SCT018 SCT031 OVC041 20/18 A2989 RMK AO2
KSQI 220756Z AUTO 32009KT 10SM FEW012 BKN018 OVC025 20/18 A2989 RMK AO2 SLP132 T02000183
KSQI 220727Z AUTO 34009KT 10SM BKN021 19/18 A2988 RMK AO2
KSQI 220656Z AUTO 33011KT 10SM FEW075 19/18 A2989 RMK AO2 SLP132 T01940178
KSQI 220556Z AUTO 34008KT 10SM FEW022 19/18 A2989 RMK AO2 SLP132 6//// T01940183 10233 20194 402780194 58004
KSQI 220456Z AUTO 34009KT 10SM CLR 19/18 A2990 RMK AO2 SLP136 T01940183
KSQI 220356Z AUTO 34007KT 10SM SCT022 SCT030 21/18 A2990 RMK AO2 SLP138 T02060183
KSQI 220256Z AUTO 35008KT 10SM FEW041 21/18 A2990 RMK AO2 SLP138 T02110183 52013
KSQI 220156Z AUTO 36007KT 10SM FEW024 SCT039 22/18 A2989 RMK AO2 SLP134 T02170183
KSQI 220056Z AUTO 33007KT 10SM CLR 22/19 A2987 RMK AO2 SLP127 T02220194
KSQI 212356Z AUTO 34010G21KT 10SM FEW033 BKN060 OVC090 23/18 A2986 RMK AO2 LTG DSNT NW SLP123 6//// T02330183 10278 20233 53006
KSQI 212256Z AUTO 33010KT 10SM FEW040 26/20 A2984 RMK AO2 SLP115 T02610200
KSQI 212156Z AUTO 30010G18KT 10SM BKN046 26/19 A2984 RMK AO2 SLP115 T02610194
KSQI 212056Z AUTO 32011G17KT 10SM FEW041 SCT050 BKN065 27/19 A2984 RMK AO2 SLP115 T02720194 56000